sensor_id;sensor_type;location;lat;lon;timestamp;P1;durP1;ratioP1;P2;durP2;ratioP2
20982;SDS011;10650;51.528;6.748;2022-08-05T00:00:13;6.13;;;4.35;;
20982;SDS011;10650;51.528;6.748;2022-08-05T00:02:42;7.93;;;5.18;;
20982;SDS011;10650;51.528;6.748;2022-08-05T00:05:17;7.45;;;5.90;;
20982;SDS011;10650;51.528;6.748;2022-08-05T00:08:07;5.90;;;4.88;;
20982;SDS011;10650;51.528;6.748;2022-08-05T00:10:55;6.78;;;4.68;;
20982;SDS011;10650;51.528;6.748;2022-08-05T00:13:26;5.72;;;4.88;;
20982;SDS011;10650;51.528;6.748;2022-08-05T00:16:05;7.15;;;5.32;;
20982;SDS011;10650;51.528;6.748;2022-08-05T00:18:37;6.68;;;4.60;;
20982;SDS011;10650;51.528;6.748;2022-08-05T00:21:07;7.13;;;4.45;;
20982;SDS011;10650;51.528;6.748;2022-08-05T00:23:37;6.55;;;4.72;;
20982;SDS011;10650;51.528;6.748;2022-08-05T00:26:18;7.50;;;5.25;;
20982;SDS011;10650;51.528;6.748;2022-08-05T00:28:47;5.22;;;4.53;;
20982;SDS011;10650;51.528;6.748;2022-08-05T00:31:15;5.45;;;4.90;;
20982;SDS011;10650;51.528;6.748;2022-08-05T00:34:03;6.68;;;5.68;;
20982;SDS011;10650;51.528;6.748;2022-08-05T00:36:51;7.30;;;6.20;;
20982;SDS011;10650;51.528;6.748;2022-08-05T00:39:40;5.00;;;4.47;;
20982;SDS011;10650;51.528;6.748;2022-08-05T00:42:29;7.55;;;5.32;;
20982;SDS011;10650;51.528;6.748;2022-08-05T00:44:58;6.47;;;5.72;;
20982;SDS011;10650;51.528;6.748;2022-08-05T00:47:26;6.65;;;4.95;;
20982;SDS011;10650;51.528;6.748;2022-08-05T00:50:14;6.85;;;4.65;;
20982;SDS011;10650;51.528;6.748;2022-08-05T00:52:41;5.25;;;4.78;;
20982;SDS011;10650;51.528;6.748;2022-08-05T00:55:13;10.15;;;7.20;;
20982;SDS011;10650;51.528;6.748;2022-08-05T00:57:41;6.00;;;5.40;;
20982;SDS011;10650;51.528;6.748;2022-08-05T01:00:24;7.40;;;6.45;;
20982;SDS011;10650;51.528;6.748;2022-08-05T01:02:53;6.40;;;5.72;;
20982;SDS011;10650;51.528;6.748;2022-08-05T01:05:21;8.57;;;6.47;;
20982;SDS011;10650;51.528;6.748;2022-08-05T01:07:52;6.13;;;5.30;;
20982;SDS011;10650;51.528;6.748;2022-08-05T01:10:43;9.73;;;7.85;;
20982;SDS011;10650;51.528;6.748;2022-08-05T01:13:20;7.95;;;6.13;;
20982;SDS011;10650;51.528;6.748;2022-08-05T01:16:18;8.45;;;7.30;;
20982;SDS011;10650;51.528;6.748;2022-08-05T01:18:53;9.35;;;7.70;;
20982;SDS011;10650;51.528;6.748;2022-08-05T01:21:38;6.57;;;5.88;;
20982;SDS011;10650;51.528;6.748;2022-08-05T01:24:46;9.35;;;8.40;;
20982;SDS011;10650;51.528;6.748;2022-08-05T01:30:22;9.80;;;8.00;;
20982;SDS011;10650;51.528;6.748;2022-08-05T01:33:00;10.38;;;8.25;;
20982;SDS011;10650;51.528;6.748;2022-08-05T01:35:34;11.05;;;9.15;;
20982;SDS011;10650;51.528;6.748;2022-08-05T01:38:18;7.20;;;6.50;;
20982;SDS011;10650;51.528;6.748;2022-08-05T01:40:53;12.20;;;8.98;;
20982;SDS011;10650;51.528;6.748;2022-08-05T01:43:24;11.82;;;8.65;;
20982;SDS011;10650;51.528;6.748;2022-08-05T01:45:56;10.35;;;9.20;;
20982;SDS011;10650;51.528;6.748;2022-08-05T01:48:41;10.90;;;7.53;;
20982;SDS011;10650;51.528;6.748;2022-08-05T01:51:15;12.45;;;9.75;;
20982;SDS011;10650;51.528;6.748;2022-08-05T01:53:45;9.32;;;8.00;;
20982;SDS011;10650;51.528;6.748;2022-08-05T01:56:23;9.18;;;6.88;;
20982;SDS011;10650;51.528;6.748;2022-08-05T01:59:15;11.52;;;8.77;;
20982;SDS011;10650;51.528;6.748;2022-08-05T02:01:48;9.25;;;7.38;;
20982;SDS011;10650;51.528;6.748;2022-08-05T02:04:22;9.15;;;8.20;;
20982;SDS011;10650;51.528;6.748;2022-08-05T02:06:55;9.95;;;8.43;;
20982;SDS011;10650;51.528;6.748;2022-08-05T02:09:23;8.90;;;7.65;;
20982;SDS011;10650;51.528;6.748;2022-08-05T02:11:55;10.50;;;8.20;;
20982;SDS011;10650;51.528;6.748;2022-08-05T02:14:29;9.18;;;7.80;;
20982;SDS011;10650;51.528;6.748;2022-08-05T02:17:02;9.50;;;7.80;;
20982;SDS011;10650;51.528;6.748;2022-08-05T02:19:42;9.13;;;7.95;;
20982;SDS011;10650;51.528;6.748;2022-08-05T02:22:15;13.25;;;10.02;;
20982;SDS011;10650;51.528;6.748;2022-08-05T02:24:54;10.85;;;8.48;;
20982;SDS011;10650;51.528;6.748;2022-08-05T02:27:25;9.05;;;7.38;;
20982;SDS011;10650;51.528;6.748;2022-08-05T02:30:15;12.93;;;9.68;;
20982;SDS011;10650;51.528;6.748;2022-08-05T02:32:46;11.35;;;9.20;;
20982;SDS011;10650;51.528;6.748;2022-08-05T02:35:19;13.35;;;10.95;;
20982;SDS011;10650;51.528;6.748;2022-08-05T02:37:53;11.00;;;8.73;;
20982;SDS011;10650;51.528;6.748;2022-08-05T02:40:27;10.63;;;8.20;;
20982;SDS011;10650;51.528;6.748;2022-08-05T02:42:56;10.90;;;8.55;;
20982;SDS011;10650;51.528;6.748;2022-08-05T02:45:25;14.10;;;11.45;;
20982;SDS011;10650;51.528;6.748;2022-08-05T02:48:16;15.32;;;11.63;;
20982;SDS011;10650;51.528;6.748;2022-08-05T02:50:54;10.63;;;8.95;;
20982;SDS011;10650;51.528;6.748;2022-08-05T02:53:24;11.88;;;8.57;;
20982;SDS011;10650;51.528;6.748;2022-08-05T02:56:05;12.50;;;9.63;;
20982;SDS011;10650;51.528;6.748;2022-08-05T02:58:34;13.35;;;10.70;;
20982;SDS011;10650;51.528;6.748;2022-08-05T03:01:10;14.20;;;10.82;;
20982;SDS011;10650;51.528;6.748;2022-08-05T03:03:46;17.60;;;13.13;;
20982;SDS011;10650;51.528;6.748;2022-08-05T03:06:36;12.73;;;10.07;;
20982;SDS011;10650;51.528;6.748;2022-08-05T03:09:24;14.50;;;11.32;;
20982;SDS011;10650;51.528;6.748;2022-08-05T03:12:04;12.60;;;9.95;;
20982;SDS011;10650;51.528;6.748;2022-08-05T03:14:33;12.70;;;9.90;;
20982;SDS011;10650;51.528;6.748;2022-08-05T03:17:11;10.32;;;7.90;;
20982;SDS011;10650;51.528;6.748;2022-08-05T03:19:41;14.20;;;9.35;;
20982;SDS011;10650;51.528;6.748;2022-08-05T03:22:11;8.50;;;6.93;;
20982;SDS011;10650;51.528;6.748;2022-08-05T03:24:45;16.35;;;11.40;;
20982;SDS011;10650;51.528;6.748;2022-08-05T03:27:16;10.02;;;9.02;;
20982;SDS011;10650;51.528;6.748;2022-08-05T03:29:44;16.23;;;11.60;;
20982;SDS011;10650;51.528;6.748;2022-08-05T03:32:32;15.27;;;10.75;;
20982;SDS011;10650;51.528;6.748;2022-08-05T03:35:03;13.90;;;10.15;;
20982;SDS011;10650;51.528;6.748;2022-08-05T03:37:34;15.63;;;11.50;;
20982;SDS011;10650;51.528;6.748;2022-08-05T03:40:12;14.93;;;12.18;;
20982;SDS011;10650;51.528;6.748;2022-08-05T03:42:57;11.07;;;9.88;;
20982;SDS011;10650;51.528;6.748;2022-08-05T03:45:45;13.70;;;10.82;;
20982;SDS011;10650;51.528;6.748;2022-08-05T03:48:24;20.08;;;13.98;;
20982;SDS011;10650;51.528;6.748;2022-08-05T03:50:57;14.43;;;12.38;;
20982;SDS011;10650;51.528;6.748;2022-08-05T03:53:51;15.45;;;11.55;;
20982;SDS011;10650;51.528;6.748;2022-08-05T03:56:43;21.88;;;15.75;;
20982;SDS011;10650;51.528;6.748;2022-08-05T03:59:15;14.88;;;12.27;;
20982;SDS011;10650;51.528;6.748;2022-08-05T04:01:46;14.68;;;12.82;;
20982;SDS011;10650;51.528;6.748;2022-08-05T04:04:17;14.17;;;12.70;;
20982;SDS011;10650;51.528;6.748;2022-08-05T04:06:53;20.67;;;16.25;;
20982;SDS011;10650;51.528;6.748;2022-08-05T04:09:22;21.05;;;18.88;;
20982;SDS011;10650;51.528;6.748;2022-08-05T04:11:52;15.75;;;14.10;;
20982;SDS011;10650;51.528;6.748;2022-08-05T04:14:22;15.13;;;13.27;;
20982;SDS011;10650;51.528;6.748;2022-08-05T04:16:56;18.85;;;16.45;;
20982;SDS011;10650;51.528;6.748;2022-08-05T04:19:26;16.60;;;13.68;;
20982;SDS011;10650;51.528;6.748;2022-08-05T04:21:55;17.88;;;14.93;;
20982;SDS011;10650;51.528;6.748;2022-08-05T04:24:38;18.63;;;16.35;;
20982;SDS011;10650;51.528;6.748;2022-08-05T04:29:37;15.32;;;13.18;;
20982;SDS011;10650;51.528;6.748;2022-08-05T04:32:05;16.02;;;13.70;;
20982;SDS011;10650;51.528;6.748;2022-08-05T04:34:34;17.40;;;14.93;;
20982;SDS011;10650;51.528;6.748;2022-08-05T04:37:09;17.20;;;14.65;;
20982;SDS011;10650;51.528;6.748;2022-08-05T04:39:38;20.08;;;16.38;;
20982;SDS011;10650;51.528;6.748;2022-08-05T04:42:06;19.63;;;15.52;;
20982;SDS011;10650;51.528;6.748;2022-08-05T04:44:34;21.42;;;16.65;;
20982;SDS011;10650;51.528;6.748;2022-08-05T04:47:02;14.43;;;12.73;;
20982;SDS011;10650;51.528;6.748;2022-08-05T04:49:46;12.63;;;11.43;;
20982;SDS011;10650;51.528;6.748;2022-08-05T04:52:35;18.90;;;14.73;;
20982;SDS011;10650;51.528;6.748;2022-08-05T04:55:03;14.32;;;11.27;;
20982;SDS011;10650;51.528;6.748;2022-08-05T04:57:42;16.65;;;13.45;;
20982;SDS011;10650;51.528;6.748;2022-08-05T05:00:16;18.08;;;14.57;;
20982;SDS011;10650;51.528;6.748;2022-08-05T05:05:17;15.00;;;12.23;;
20982;SDS011;10650;51.528;6.748;2022-08-05T05:07:55;12.45;;;10.90;;
20982;SDS011;10650;51.528;6.748;2022-08-05T05:10:28;15.90;;;12.77;;
20982;SDS011;10650;51.528;6.748;2022-08-05T05:12:58;12.48;;;10.02;;
20982;SDS011;10650;51.528;6.748;2022-08-05T05:15:29;23.55;;;16.45;;
20982;SDS011;10650;51.528;6.748;2022-08-05T05:18:18;16.55;;;13.90;;
20982;SDS011;10650;51.528;6.748;2022-08-05T05:20:59;14.27;;;11.65;;
20982;SDS011;10650;51.528;6.748;2022-08-05T05:23:30;10.90;;;9.77;;
20982;SDS011;10650;51.528;6.748;2022-08-05T05:26:18;16.20;;;12.60;;
20982;SDS011;10650;51.528;6.748;2022-08-05T05:28:57;15.40;;;12.52;;
20982;SDS011;10650;51.528;6.748;2022-08-05T05:31:27;13.43;;;11.32;;
20982;SDS011;10650;51.528;6.748;2022-08-05T05:33:55;16.70;;;12.05;;
20982;SDS011;10650;51.528;6.748;2022-08-05T05:36:27;15.65;;;11.73;;
20982;SDS011;10650;51.528;6.748;2022-08-05T05:38:58;17.08;;;12.18;;
20982;SDS011;10650;51.528;6.748;2022-08-05T05:41:29;14.52;;;10.32;;
20982;SDS011;10650;51.528;6.748;2022-08-05T05:44:07;14.63;;;10.48;;
20982;SDS011;10650;51.528;6.748;2022-08-05T05:46:55;13.00;;;10.98;;
20982;SDS011;10650;51.528;6.748;2022-08-05T05:49:29;12.18;;;10.68;;
20982;SDS011;10650;51.528;6.748;2022-08-05T05:51:58;17.92;;;12.52;;
20982;SDS011;10650;51.528;6.748;2022-08-05T05:54:32;13.38;;;10.05;;
20982;SDS011;10650;51.528;6.748;2022-08-05T05:57:16;16.75;;;11.18;;
20982;SDS011;10650;51.528;6.748;2022-08-05T05:59:45;12.27;;;9.18;;
20982;SDS011;10650;51.528;6.748;2022-08-05T06:02:14;16.05;;;10.20;;
20982;SDS011;10650;51.528;6.748;2022-08-05T06:04:57;17.73;;;10.70;;
20982;SDS011;10650;51.528;6.748;2022-08-05T06:07:28;13.48;;;10.40;;
20982;SDS011;10650;51.528;6.748;2022-08-05T06:10:09;13.02;;;10.85;;
20982;SDS011;10650;51.528;6.748;2022-08-05T06:12:37;11.60;;;9.25;;
20982;SDS011;10650;51.528;6.748;2022-08-05T06:15:07;14.32;;;10.30;;
20982;SDS011;10650;51.528;6.748;2022-08-05T06:17:49;14.80;;;9.27;;
20982;SDS011;10650;51.528;6.748;2022-08-05T06:20:19;16.58;;;11.48;;
20982;SDS011;10650;51.528;6.748;2022-08-05T06:22:47;10.85;;;8.63;;
20982;SDS011;10650;51.528;6.748;2022-08-05T06:25:17;11.00;;;8.43;;
20982;SDS011;10650;51.528;6.748;2022-08-05T06:28:05;16.08;;;9.45;;
20982;SDS011;10650;51.528;6.748;2022-08-05T06:30:46;11.43;;;9.80;;
20982;SDS011;10650;51.528;6.748;2022-08-05T06:33:14;10.77;;;7.90;;
20982;SDS011;10650;51.528;6.748;2022-08-05T06:35:44;11.85;;;7.18;;
20982;SDS011;10650;51.528;6.748;2022-08-05T06:38:32;10.73;;;7.20;;
20982;SDS011;10650;51.528;6.748;2022-08-05T06:41:03;9.85;;;6.85;;
20982;SDS011;10650;51.528;6.748;2022-08-05T06:43:33;11.15;;;7.13;;
20982;SDS011;10650;51.528;6.748;2022-08-05T06:46:21;11.95;;;6.72;;
20982;SDS011;10650;51.528;6.748;2022-08-05T06:48:55;10.35;;;6.13;;
20982;SDS011;10650;51.528;6.748;2022-08-05T06:51:25;9.43;;;6.57;;
20982;SDS011;10650;51.528;6.748;2022-08-05T06:53:55;10.00;;;7.95;;
20982;SDS011;10650;51.528;6.748;2022-08-05T06:56:25;10.73;;;7.25;;
20982;SDS011;10650;51.528;6.748;2022-08-05T06:58:53;13.93;;;8.40;;
20982;SDS011;10650;51.528;6.748;2022-08-05T07:01:22;9.10;;;6.20;;
20982;SDS011;10650;51.528;6.748;2022-08-05T07:03:58;13.13;;;6.63;;
20982;SDS011;10650;51.528;6.748;2022-08-05T07:06:27;10.07;;;6.90;;
20982;SDS011;10650;51.528;6.748;2022-08-05T07:08:57;7.32;;;5.32;;
20982;SDS011;10650;51.528;6.748;2022-08-05T07:11:30;9.10;;;5.78;;
20982;SDS011;10650;51.528;6.748;2022-08-05T07:14:05;11.27;;;6.15;;
20982;SDS011;10650;51.528;6.748;2022-08-05T07:16:55;8.80;;;5.55;;
20982;SDS011;10650;51.528;6.748;2022-08-05T07:19:46;7.57;;;5.25;;
20982;SDS011;10650;51.528;6.748;2022-08-05T07:22:34;8.93;;;6.10;;
20982;SDS011;10650;51.528;6.748;2022-08-05T07:25:03;11.18;;;5.13;;
20982;SDS011;10650;51.528;6.748;2022-08-05T07:27:53;7.40;;;4.53;;
20982;SDS011;10650;51.528;6.748;2022-08-05T07:30:33;7.72;;;5.78;;
20982;SDS011;10650;51.528;6.748;2022-08-05T07:33:05;9.15;;;5.25;;
20982;SDS011;10650;51.528;6.748;2022-08-05T07:35:41;9.43;;;6.00;;
20982;SDS011;10650;51.528;6.748;2022-08-05T07:38:29;10.63;;;5.32;;
20982;SDS011;10650;51.528;6.748;2022-08-05T07:41:00;7.60;;;5.20;;
20982;SDS011;10650;51.528;6.748;2022-08-05T07:43:54;7.20;;;3.92;;
20982;SDS011;10650;51.528;6.748;2022-08-05T07:46:23;7.18;;;4.85;;
20982;SDS011;10650;51.528;6.748;2022-08-05T07:48:52;6.13;;;4.47;;
20982;SDS011;10650;51.528;6.748;2022-08-05T07:51:33;5.85;;;4.78;;
20982;SDS011;10650;51.528;6.748;2022-08-05T07:54:19;7.18;;;5.30;;
20982;SDS011;10650;51.528;6.748;2022-08-05T07:56:55;5.60;;;4.65;;
20982;SDS011;10650;51.528;6.748;2022-08-05T07:59:44;6.55;;;3.80;;
20982;SDS011;10650;51.528;6.748;2022-08-05T08:02:14;6.38;;;4.45;;
20982;SDS011;10650;51.528;6.748;2022-08-05T08:04:44;7.43;;;4.47;;
20982;SDS011;10650;51.528;6.748;2022-08-05T08:07:14;8.48;;;5.15;;
20982;SDS011;10650;51.528;6.748;2022-08-05T08:09:43;11.25;;;5.05;;
20982;SDS011;10650;51.528;6.748;2022-08-05T08:12:11;7.63;;;4.30;;
20982;SDS011;10650;51.528;6.748;2022-08-05T08:15:01;12.82;;;5.32;;
20982;SDS011;10650;51.528;6.748;2022-08-05T08:17:30;7.05;;;4.80;;
20982;SDS011;10650;51.528;6.748;2022-08-05T08:19:59;6.30;;;4.07;;
20982;SDS011;10650;51.528;6.748;2022-08-05T08:22:50;5.47;;;4.03;;
20982;SDS011;10650;51.528;6.748;2022-08-05T08:25:21;6.72;;;4.50;;
20982;SDS011;10650;51.528;6.748;2022-08-05T08:28:09;5.53;;;4.10;;
20982;SDS011;10650;51.528;6.748;2022-08-05T08:30:58;6.55;;;4.13;;
20982;SDS011;10650;51.528;6.748;2022-08-05T08:33:26;8.20;;;4.78;;
20982;SDS011;10650;51.528;6.748;2022-08-05T08:36:03;6.78;;;4.40;;
20982;SDS011;10650;51.528;6.748;2022-08-05T08:38:52;8.20;;;4.78;;
20982;SDS011;10650;51.528;6.748;2022-08-05T08:41:22;8.20;;;5.38;;
20982;SDS011;10650;51.528;6.748;2022-08-05T08:44:13;8.20;;;4.97;;
20982;SDS011;10650;51.528;6.748;2022-08-05T08:47:03;8.65;;;5.90;;
20982;SDS011;10650;51.528;6.748;2022-08-05T08:49:53;9.82;;;6.30;;
20982;SDS011;10650;51.528;6.748;2022-08-05T08:52:42;6.80;;;4.80;;
20982;SDS011;10650;51.528;6.748;2022-08-05T08:55:18;8.23;;;5.32;;
20982;SDS011;10650;51.528;6.748;2022-08-05T08:58:09;7.35;;;5.10;;
20982;SDS011;10650;51.528;6.748;2022-08-05T09:00:38;7.90;;;5.63;;
20982;SDS011;10650;51.528;6.748;2022-08-05T09:03:11;8.48;;;5.65;;
20982;SDS011;10650;51.528;6.748;2022-08-05T09:05:44;6.75;;;4.50;;
20982;SDS011;10650;51.528;6.748;2022-08-05T09:08:33;4.93;;;4.18;;
20982;SDS011;10650;51.528;6.748;2022-08-05T09:11:05;8.43;;;5.30;;
20982;SDS011;10650;51.528;6.748;2022-08-05T09:13:39;10.05;;;5.70;;
20982;SDS011;10650;51.528;6.748;2022-08-05T09:16:28;10.15;;;6.13;;
20982;SDS011;10650;51.528;6.748;2022-08-05T09:18:57;5.15;;;4.03;;
20982;SDS011;10650;51.528;6.748;2022-08-05T09:21:25;9.25;;;4.95;;
20982;SDS011;10650;51.528;6.748;2022-08-05T09:24:14;6.22;;;4.32;;
20982;SDS011;10650;51.528;6.748;2022-08-05T09:26:45;6.65;;;4.32;;
20982;SDS011;10650;51.528;6.748;2022-08-05T09:29:17;6.95;;;4.40;;
20982;SDS011;10650;51.528;6.748;2022-08-05T09:32:01;6.78;;;4.13;;
20982;SDS011;10650;51.528;6.748;2022-08-05T09:34:51;5.53;;;4.20;;
20982;SDS011;10650;51.528;6.748;2022-08-05T09:37:21;8.00;;;4.55;;
20982;SDS011;10650;51.528;6.748;2022-08-05T09:40:13;5.03;;;3.58;;
20982;SDS011;10650;51.528;6.748;2022-08-05T09:42:57;5.18;;;4.03;;
20982;SDS011;10650;51.528;6.748;2022-08-05T09:45:36;5.07;;;3.67;;
20982;SDS011;10650;51.528;6.748;2022-08-05T09:48:25;5.70;;;3.50;;
20982;SDS011;10650;51.528;6.748;2022-08-05T09:50:57;5.97;;;4.22;;
20982;SDS011;10650;51.528;6.748;2022-08-05T09:53:26;4.00;;;3.60;;
20982;SDS011;10650;51.528;6.748;2022-08-05T09:56:22;6.68;;;4.45;;
20982;SDS011;10650;51.528;6.748;2022-08-05T09:58:54;4.82;;;3.42;;
20982;SDS011;10650;51.528;6.748;2022-08-05T10:01:23;4.20;;;3.63;;
20982;SDS011;10650;51.528;6.748;2022-08-05T10:03:58;5.20;;;4.05;;
20982;SDS011;10650;51.528;6.748;2022-08-05T10:06:30;5.40;;;3.58;;
20982;SDS011;10650;51.528;6.748;2022-08-05T10:09:08;5.32;;;3.40;;
20982;SDS011;10650;51.528;6.748;2022-08-05T10:11:53;6.35;;;3.60;;
20982;SDS011;10650;51.528;6.748;2022-08-05T10:14:53;7.60;;;3.35;;
20982;SDS011;10650;51.528;6.748;2022-08-05T10:17:42;5.28;;;3.50;;
20982;SDS011;10650;51.528;6.748;2022-08-05T10:20:22;6.40;;;3.55;;
20982;SDS011;10650;51.528;6.748;2022-08-05T10:22:51;4.55;;;3.13;;
20982;SDS011;10650;51.528;6.748;2022-08-05T10:25:23;5.65;;;2.90;;
20982;SDS011;10650;51.528;6.748;2022-08-05T10:27:51;5.60;;;3.65;;
20982;SDS011;10650;51.528;6.748;2022-08-05T10:30:39;4.57;;;3.00;;
20982;SDS011;10650;51.528;6.748;2022-08-05T10:33:28;4.80;;;3.15;;
20982;SDS011;10650;51.528;6.748;2022-08-05T10:36:00;3.17;;;2.70;;
20982;SDS011;10650;51.528;6.748;2022-08-05T10:38:32;4.53;;;3.17;;
20982;SDS011;10650;51.528;6.748;2022-08-05T10:41:03;5.47;;;3.80;;
20982;SDS011;10650;51.528;6.748;2022-08-05T10:43:49;6.47;;;3.90;;
20982;SDS011;10650;51.528;6.748;2022-08-05T10:46:41;5.18;;;3.67;;
20982;SDS011;10650;51.528;6.748;2022-08-05T10:49:09;6.20;;;3.83;;
20982;SDS011;10650;51.528;6.748;2022-08-05T10:51:42;5.20;;;4.03;;
20982;SDS011;10650;51.528;6.748;2022-08-05T10:57:25;5.35;;;4.65;;
20982;SDS011;10650;51.528;6.748;2022-08-05T11:00:11;6.72;;;5.20;;
20982;SDS011;10650;51.528;6.748;2022-08-05T11:06:10;7.10;;;4.22;;
20982;SDS011;10650;51.528;6.748;2022-08-05T11:15:20;6.50;;;5.10;;
20982;SDS011;10650;51.528;6.748;2022-08-05T11:18:21;6.93;;;4.97;;
20982;SDS011;10650;51.528;6.748;2022-08-05T11:20:54;6.63;;;4.60;;
20982;SDS011;10650;51.528;6.748;2022-08-05T11:23:28;8.80;;;4.78;;
20982;SDS011;10650;51.528;6.748;2022-08-05T11:26:21;6.65;;;5.65;;
20982;SDS011;10650;51.528;6.748;2022-08-05T11:28:55;5.97;;;4.72;;
20982;SDS011;10650;51.528;6.748;2022-08-05T11:31:39;8.55;;;5.10;;
20982;SDS011;10650;51.528;6.748;2022-08-05T11:34:37;5.93;;;3.97;;
20982;SDS011;10650;51.528;6.748;2022-08-05T11:41:00;5.28;;;4.10;;
20982;SDS011;10650;51.528;6.748;2022-08-05T11:43:53;7.03;;;4.97;;
20982;SDS011;10650;51.528;6.748;2022-08-05T11:46:35;7.22;;;5.00;;
20982;SDS011;10650;51.528;6.748;2022-08-05T11:49:24;5.75;;;4.15;;
20982;SDS011;10650;51.528;6.748;2022-08-05T11:51:53;5.75;;;3.92;;
20982;SDS011;10650;51.528;6.748;2022-08-05T11:54:23;5.03;;;3.78;;
20982;SDS011;10650;51.528;6.748;2022-08-05T11:57:00;6.43;;;3.80;;
20982;SDS011;10650;51.528;6.748;2022-08-05T11:59:49;4.95;;;3.47;;
20982;SDS011;10650;51.528;6.748;2022-08-05T12:02:22;4.72;;;4.13;;
20982;SDS011;10650;51.528;6.748;2022-08-05T12:04:58;5.43;;;4.07;;
20982;SDS011;10650;51.528;6.748;2022-08-05T12:07:34;4.95;;;3.13;;
20982;SDS011;10650;51.528;6.748;2022-08-05T12:10:24;5.60;;;4.30;;
20982;SDS011;10650;51.528;6.748;2022-08-05T12:13:10;7.03;;;4.50;;
20982;SDS011;10650;51.528;6.748;2022-08-05T12:15:44;7.55;;;4.40;;
20982;SDS011;10650;51.528;6.748;2022-08-05T12:18:17;9.63;;;3.83;;
20982;SDS011;10650;51.528;6.748;2022-08-05T12:20:49;4.85;;;3.53;;
20982;SDS011;10650;51.528;6.748;2022-08-05T12:23:17;5.65;;;3.25;;
20982;SDS011;10650;51.528;6.748;2022-08-05T12:25:48;4.75;;;3.90;;
20982;SDS011;10650;51.528;6.748;2022-08-05T12:31:03;5.38;;;3.70;;
20982;SDS011;10650;51.528;6.748;2022-08-05T12:33:33;6.57;;;4.28;;
20982;SDS011;10650;51.528;6.748;2022-08-05T12:36:04;5.45;;;3.97;;
20982;SDS011;10650;51.528;6.748;2022-08-05T12:38:35;5.22;;;3.88;;
20982;SDS011;10650;51.528;6.748;2022-08-05T12:41:08;6.10;;;3.05;;
20982;SDS011;10650;51.528;6.748;2022-08-05T12:43:48;5.93;;;3.35;;
20982;SDS011;10650;51.528;6.748;2022-08-05T12:46:21;3.97;;;3.20;;
20982;SDS011;10650;51.528;6.748;2022-08-05T12:48:59;4.25;;;2.67;;
20982;SDS011;10650;51.528;6.748;2022-08-05T12:51:42;3.60;;;2.90;;
20982;SDS011;10650;51.528;6.748;2022-08-05T12:54:31;3.95;;;2.70;;
20982;SDS011;10650;51.528;6.748;2022-08-05T12:57:00;3.42;;;2.30;;
20982;SDS011;10650;51.528;6.748;2022-08-05T12:59:41;4.20;;;2.00;;
20982;SDS011;10650;51.528;6.748;2022-08-05T13:02:30;2.25;;;1.92;;
20982;SDS011;10650;51.528;6.748;2022-08-05T13:04:59;2.17;;;1.58;;
20982;SDS011;10650;51.528;6.748;2022-08-05T13:07:32;3.28;;;1.67;;
20982;SDS011;10650;51.528;6.748;2022-08-05T13:10:21;3.13;;;1.50;;
20982;SDS011;10650;51.528;6.748;2022-08-05T13:12:49;2.65;;;1.60;;
20982;SDS011;10650;51.528;6.748;2022-08-05T13:15:27;2.47;;;1.55;;
20982;SDS011;10650;51.528;6.748;2022-08-05T13:18:07;3.20;;;1.88;;
20982;SDS011;10650;51.528;6.748;2022-08-05T13:20:37;2.60;;;1.48;;
20982;SDS011;10650;51.528;6.748;2022-08-05T13:23:05;2.42;;;1.60;;
20982;SDS011;10650;51.528;6.748;2022-08-05T13:25:33;2.88;;;1.92;;
20982;SDS011;10650;51.528;6.748;2022-08-05T13:28:21;3.13;;;1.70;;
20982;SDS011;10650;51.528;6.748;2022-08-05T13:30:49;2.65;;;1.55;;
20982;SDS011;10650;51.528;6.748;2022-08-05T13:33:18;2.15;;;1.50;;
20982;SDS011;10650;51.528;6.748;2022-08-05T13:36:07;2.63;;;1.38;;
20982;SDS011;10650;51.528;6.748;2022-08-05T13:38:39;1.40;;;1.30;;
20982;SDS011;10650;51.528;6.748;2022-08-05T13:41:08;1.90;;;1.20;;
20982;SDS011;10650;51.528;6.748;2022-08-05T13:43:36;3.78;;;1.27;;
20982;SDS011;10650;51.528;6.748;2022-08-05T13:46:19;2.72;;;1.30;;
20982;SDS011;10650;51.528;6.748;2022-08-05T13:49:07;2.25;;;1.38;;
20982;SDS011;10650;51.528;6.748;2022-08-05T13:51:38;2.28;;;1.20;;
20982;SDS011;10650;51.528;6.748;2022-08-05T13:54:12;2.78;;;1.60;;
20982;SDS011;10650;51.528;6.748;2022-08-05T13:56:41;1.90;;;1.30;;
20982;SDS011;10650;51.528;6.748;2022-08-05T13:59:17;2.13;;;1.25;;
20982;SDS011;10650;51.528;6.748;2022-08-05T14:01:49;1.88;;;1.20;;
20982;SDS011;10650;51.528;6.748;2022-08-05T14:04:23;4.15;;;1.13;;
20982;SDS011;10650;51.528;6.748;2022-08-05T14:07:17;1.75;;;1.00;;
20982;SDS011;10650;51.528;6.748;2022-08-05T14:10:08;1.90;;;1.10;;
20982;SDS011;10650;51.528;6.748;2022-08-05T14:12:37;3.42;;;1.10;;
20982;SDS011;10650;51.528;6.748;2022-08-05T14:15:08;2.58;;;1.05;;
20982;SDS011;10650;51.528;6.748;2022-08-05T14:17:57;1.98;;;1.10;;
20982;SDS011;10650;51.528;6.748;2022-08-05T14:20:26;2.40;;;1.13;;
20982;SDS011;10650;51.528;6.748;2022-08-05T14:22:56;1.08;;;0.85;;
20982;SDS011;10650;51.528;6.748;2022-08-05T14:25:24;2.75;;;1.13;;
20982;SDS011;10650;51.528;6.748;2022-08-05T14:27:53;2.38;;;1.00;;
20982;SDS011;10650;51.528;6.748;2022-08-05T14:30:23;1.92;;;1.10;;
20982;SDS011;10650;51.528;6.748;2022-08-05T14:32:53;3.10;;;0.98;;
20982;SDS011;10650;51.528;6.748;2022-08-05T14:35:22;1.88;;;1.00;;
20982;SDS011;10650;51.528;6.748;2022-08-05T14:38:11;1.67;;;1.00;;
20982;SDS011;10650;51.528;6.748;2022-08-05T14:40:59;2.20;;;0.90;;
20982;SDS011;10650;51.528;6.748;2022-08-05T14:43:32;1.80;;;1.20;;
20982;SDS011;10650;51.528;6.748;2022-08-05T14:46:21;2.50;;;1.00;;
20982;SDS011;10650;51.528;6.748;2022-08-05T14:48:54;0.98;;;0.82;;
20982;SDS011;10650;51.528;6.748;2022-08-05T14:51:24;3.65;;;1.20;;
20982;SDS011;10650;51.528;6.748;2022-08-05T14:53:57;1.42;;;1.00;;
20982;SDS011;10650;51.528;6.748;2022-08-05T14:56:46;2.05;;;1.10;;
20982;SDS011;10650;51.528;6.748;2022-08-05T14:59:16;1.25;;;0.90;;
20982;SDS011;10650;51.528;6.748;2022-08-05T15:01:46;1.70;;;0.98;;
20982;SDS011;10650;51.528;6.748;2022-08-05T15:04:15;1.65;;;1.08;;
20982;SDS011;10650;51.528;6.748;2022-08-05T15:09:18;1.83;;;1.00;;
20982;SDS011;10650;51.528;6.748;2022-08-05T15:12:07;1.90;;;1.30;;
20982;SDS011;10650;51.528;6.748;2022-08-05T15:14:42;3.25;;;1.17;;
20982;SDS011;10650;51.528;6.748;2022-08-05T15:17:16;2.58;;;1.00;;
20982;SDS011;10650;51.528;6.748;2022-08-05T15:20:04;3.15;;;1.42;;
20982;SDS011;10650;51.528;6.748;2022-08-05T15:22:44;1.42;;;0.90;;
20982;SDS011;10650;51.528;6.748;2022-08-05T15:25:21;1.83;;;0.90;;
20982;SDS011;10650;51.528;6.748;2022-08-05T15:28:09;2.90;;;1.35;;
20982;SDS011;10650;51.528;6.748;2022-08-05T15:30:40;2.42;;;1.17;;
20982;SDS011;10650;51.528;6.748;2022-08-05T15:33:08;1.75;;;0.80;;
20982;SDS011;10650;51.528;6.748;2022-08-05T15:35:37;1.02;;;0.80;;
20982;SDS011;10650;51.528;6.748;2022-08-05T15:38:11;2.17;;;0.90;;
20982;SDS011;10650;51.528;6.748;2022-08-05T15:41:00;3.38;;;1.10;;
20982;SDS011;10650;51.528;6.748;2022-08-05T15:43:48;1.48;;;0.90;;
20982;SDS011;10650;51.528;6.748;2022-08-05T15:46:16;2.80;;;0.98;;
20982;SDS011;10650;51.528;6.748;2022-08-05T15:48:49;1.92;;;1.00;;
20982;SDS011;10650;51.528;6.748;2022-08-05T15:51:26;3.08;;;1.00;;
20982;SDS011;10650;51.528;6.748;2022-08-05T15:54:15;2.28;;;0.98;;
20982;SDS011;10650;51.528;6.748;2022-08-05T15:56:44;1.98;;;0.85;;
20982;SDS011;10650;51.528;6.748;2022-08-05T15:59:12;1.88;;;1.10;;
20982;SDS011;10650;51.528;6.748;2022-08-05T16:01:47;1.10;;;0.80;;
20982;SDS011;10650;51.528;6.748;2022-08-05T16:04:18;3.03;;;0.90;;
20982;SDS011;10650;51.528;6.748;2022-08-05T16:06:51;1.90;;;0.95;;